Time;durP1;ratioP1;P1;durP2;ratioP2;P2;SDS_P1;SDS_P2;PMS_P1;PMS_P2;Temp;Humidity;BMP_temperature;BMP_pressure;BME280_temperature;BME280_humidity;BME280_pressure;Samples;Min_cycle;Max_cycle;Signal;HPM_P1;HPM_P2
2022/10/01 00:01:03;;;;;;;7.70;4.40;;;12.60;99.90;;;;;;5049701;28;20164;-79
2022/10/01 00:03:30;;;;;;;5.10;3.72;;;12.50;99.90;;;;;;5033826;28;20238;-80
2022/10/01 00:06:09;;;;;;;5.25;4.22;;;12.60;99.90;;;;;;5049434;28;20188;-80
2022/10/01 00:08:36;;;;;;;4.55;3.97;;;12.50;99.90;;;;;;5033933;28;20190;-80
2022/10/01 00:11:16;;;;;;;6.30;4.03;;;12.40;99.90;;;;;;5033886;28;20195;-80
2022/10/01 00:13:42;;;;;;;4.35;3.95;;;12.40;99.90;;;;;;5033938;28;20168;-80
2022/10/01 00:16:11;;;;;;;3.72;3.42;;;12.40;99.90;;;;;;5033654;28;20681;-80
2022/10/01 00:18:39;;;;;;;7.28;4.28;;;12.30;99.90;;;;;;5034127;28;20259;-80
2022/10/01 00:21:10;;;;;;;3.60;3.30;;;12.40;99.90;;;;;;5033819;28;20191;-81
2022/10/01 00:23:35;;;;;;;4.47;4.07;;;12.20;99.90;;;;;;5032181;28;20203;-81
2022/10/01 00:26:15;;;;;;;5.68;3.22;;;12.30;99.90;;;;;;5032053;28;20183;-81
2022/10/01 00:28:42;;;;;;;9.73;3.53;;;12.40;99.90;;;;;;5049129;28;20275;-80
2022/10/01 00:31:09;;;;;;;3.35;3.05;;;12.40;99.90;;;;;;5033557;28;20199;-80
2022/10/01 00:33:35;;;;;;;3.00;2.75;;;12.40;99.90;;;;;;5033584;28;20179;-80
2022/10/01 00:36:02;;;;;;;5.85;2.30;;;12.30;99.90;;;;;;5032270;28;20191;-81
2022/10/01 00:38:29;;;;;;;3.30;2.50;;;12.30;99.90;;;;;;5032184;28;20175;-81
2022/10/01 00:40:55;;;;;;;4.93;2.85;;;12.50;99.90;;;;;;5033885;28;20191;-80
2022/10/01 00:43:22;;;;;;;3.33;2.67;;;12.50;99.90;;;;;;5033533;28;20203;-80
2022/10/01 00:45:49;;;;;;;3.13;2.47;;;12.50;99.90;;;;;;5033208;28;20196;-81
2022/10/01 00:48:16;;;;;;;2.47;2.28;;;12.50;99.90;;;;;;5033134;28;20169;-81
2022/10/01 00:50:43;;;;;;;2.97;2.17;;;12.40;99.90;;;;;;5034941;28;20164;-81
2022/10/01 00:53:11;;;;;;;3.92;2.08;;;12.40;99.90;;;;;;5035083;28;20197;-80
2022/10/01 00:55:40;;;;;;;2.58;2.38;;;12.40;99.90;;;;;;5035360;28;20184;-81
2022/10/01 00:58:08;;;;;;;2.33;1.98;;;12.40;99.90;;;;;;5033272;28;20167;-81
2022/10/01 01:00:35;;;;;;;1.55;1.40;;;12.40;99.90;;;;;;5033573;28;20218;-81
2022/10/01 01:03:01;;;;;;;1.80;1.70;;;12.30;99.90;;;;;;5033116;28;20285;-81
2022/10/01 01:05:27;;;;;;;2.17;2.03;;;12.20;99.90;;;;;;5033161;28;20666;-81
2022/10/01 01:07:53;;;;;;;4.60;2.13;;;12.20;99.90;;;;;;5048709;28;20176;-81
2022/10/01 01:10:33;;;;;;;1.77;1.50;;;12.20;99.90;;;;;;5034828;28;20164;-81
2022/10/01 01:13:02;;;;;;;2.05;1.40;;;12.20;99.90;;;;;;5032744;28;20168;-81
2022/10/01 01:15:51;;;;;;;1.50;1.40;;;12.20;99.90;;;;;;5031395;28;20283;-81
2022/10/01 01:18:20;;;;;;;2.70;1.40;;;12.30;99.90;;;;;;5032984;28;20265;-81
2022/10/01 01:20:52;;;;;;;1.77;1.48;;;12.40;99.90;;;;;;5033158;28;20168;-81
2022/10/01 01:23:17;;;;;;;1.83;1.70;;;12.40;99.90;;;;;;5047969;28;20301;-81
2022/10/01 01:26:06;;;;;;;1.92;1.63;;;12.40;99.90;;;;;;5032682;28;20262;-81
2022/10/01 01:28:38;;;;;;;3.90;1.80;;;12.30;99.90;;;;;;5032853;28;20717;-80
2022/10/01 01:31:11;;;;;;;1.60;1.50;;;12.40;99.90;;;;;;5048555;28;20195;-81
2022/10/01 01:33:39;;;;;;;2.17;1.40;;;12.30;99.90;;;;;;5033054;28;20190;-81
2022/10/01 01:36:16;;;;;;;1.70;1.38;;;12.30;99.90;;;;;;5048612;28;20191;-81
2022/10/01 01:38:50;;;;;;;5.47;1.90;;;12.40;99.90;;;;;;5032631;28;20642;-81
2022/10/01 01:41:19;;;;;;;2.75;1.30;;;12.30;99.90;;;;;;5030917;28;20175;-81
2022/10/01 01:43:48;;;;;;;2.30;1.50;;;12.20;99.90;;;;;;5030961;28;20257;-81
2022/10/01 01:46:18;;;;;;;2.17;1.27;;;12.20;99.90;;;;;;5032164;28;20180;-81
2022/10/01 01:48:46;;;;;;;1.52;1.15;;;12.20;99.90;;;;;;5031823;28;20203;-81
2022/10/01 01:51:30;;;;;;;1.33;1.10;;;12.30;99.90;;;;;;5047199;28;20217;-81
2022/10/01 01:53:56;;;;;;;1.63;1.17;;;12.20;99.90;;;;;;5046811;28;20183;-81
2022/10/01 01:56:22;;;;;;;1.25;1.00;;;12.30;99.90;;;;;;5032293;28;20229;-80
2022/10/01 01:58:49;;;;;;;1.48;1.38;;;12.20;99.90;;;;;;5033102;28;20198;-81
2022/10/01 02:01:36;;;;;;;1.25;1.20;;;12.20;99.90;;;;;;5033174;28;20160;-81
2022/10/01 02:04:05;;;;;;;3.42;1.00;;;12.30;99.90;;;;;;5031628;28;20678;-81
2022/10/01 02:06:43;;;;;;;1.50;1.20;;;12.40;99.90;;;;;;5032927;28;20234;-81
2022/10/01 02:09:33;;;;;;;2.55;1.27;;;12.50;99.90;;;;;;5031425;28;20306;-81
2022/10/01 02:12:19;;;;;;;1.00;1.00;;;12.40;99.90;;;;;;5032499;28;20259;-81
2022/10/01 02:15:06;;;;;;;4.82;1.25;;;12.30;99.90;;;;;;5033308;28;20183;-81
2022/10/01 02:17:57;;;;;;;1.73;1.63;;;12.30;99.90;;;;;;5033414;28;20531;-81
2022/10/01 02:20:29;;;;;;;1.15;1.05;;;12.30;99.90;;;;;;5048252;28;20186;-81
2022/10/01 02:23:02;;;;;;;1.15;1.10;;;12.40;99.90;;;;;;5035930;28;20227;-81
2022/10/01 02:25:34;;;;;;;1.02;1.02;;;12.40;99.90;;;;;;5031671;28;20245;-81
2022/10/01 02:28:05;;;;;;;1.13;1.02;;;12.40;99.90;;;;;;5033456;28;20175;-80
2022/10/01 02:30:34;;;;;;;1.27;1.17;;;12.40;99.90;;;;;;5035931;28;20689;-80
2022/10/01 02:33:04;;;;;;;1.20;1.10;;;12.50;99.90;;;;;;5034279;28;20172;-80
2022/10/01 02:35:31;;;;;;;1.00;1.00;;;12.50;99.90;;;;;;5034332;28;20254;-80
2022/10/01 02:38:00;;;;;;;0.82;0.73;;;12.50;99.90;;;;;;5034273;28;20171;-80
2022/10/01 02:40:29;;;;;;;2.40;0.73;;;12.50;99.90;;;;;;5035699;28;20170;-80
2022/10/01 02:43:01;;;;;;;0.80;0.80;;;12.50;99.90;;;;;;5033938;28;20195;-80
2022/10/01 02:45:30;;;;;;;1.10;1.00;;;12.50;99.90;;;;;;5033900;28;20286;-80
2022/10/01 02:48:04;;;;;;;1.08;0.90;;;12.60;99.90;;;;;;5035340;28;20167;-80
2022/10/01 02:50:55;;;;;;;0.63;0.63;;;12.60;99.90;;;;;;5050783;28;20626;-81
2022/10/01 02:53:33;;;;;;;1.48;0.90;;;12.60;99.90;;;;;;5034940;28;20180;-80
2022/10/01 02:56:02;;;;;;;0.90;0.82;;;12.60;99.90;;;;;;5039947;28;20219;-81
2022/10/01 02:58:28;;;;;;;0.80;0.80;;;12.60;99.90;;;;;;5050082;28;20289;-81
2022/10/01 03:00:54;;;;;;;0.75;0.70;;;12.60;99.90;;;;;;5046720;28;20199;-81
2022/10/01 03:03:20;;;;;;;1.02;1.00;;;12.60;99.90;;;;;;5043814;28;20196;-81
2022/10/01 03:05:45;;;;;;;1.20;1.10;;;12.60;99.90;;;;;;5058357;28;20195;-81
2022/10/01 03:08:11;;;;;;;2.25;0.80;;;12.80;99.90;;;;;;5042362;28;20213;-81
2022/10/01 03:10:40;;;;;;;3.83;1.10;;;12.90;99.90;;;;;;5046344;28;20692;-81
2022/10/01 03:13:12;;;;;;;1.27;1.20;;;13.00;99.90;;;;;;5047977;28;20183;-81
2022/10/01 03:15:38;;;;;;;2.35;1.35;;;13.00;99.90;;;;;;5047852;28;20184;-81
2022/10/01 03:18:03;;;;;;;1.40;1.30;;;12.90;99.90;;;;;;5047030;28;20160;-80
2022/10/01 03:20:29;;;;;;;1.50;1.38;;;13.10;99.90;;;;;;5045613;28;20192;-81
2022/10/01 03:22:54;;;;;;;3.78;1.52;;;13.00;99.90;;;;;;5046025;28;20203;-80
2022/10/01 03:25:20;;;;;;;1.63;1.52;;;13.00;99.90;;;;;;5045872;28;20209;-81
2022/10/01 03:27:45;;;;;;;1.52;1.42;;;13.00;99.90;;;;;;5047028;28;20206;-81
2022/10/01 03:30:11;;;;;;;1.35;1.25;;;13.10;99.90;;;;;;5047646;28;20167;-80
2022/10/01 03:32:37;;;;;;;1.48;1.38;;;13.20;99.90;;;;;;5046398;28;20164;-81
2022/10/01 03:35:03;;;;;;;4.80;1.35;;;13.20;99.90;;;;;;5045827;28;20226;-80
2022/10/01 03:37:29;;;;;;;1.13;1.13;;;13.20;99.90;;;;;;5047292;28;20171;-81
2022/10/01 03:39:55;;;;;;;1.23;1.13;;;13.30;99.90;;;;;;5047230;28;20176;-80
2022/10/01 03:42:20;;;;;;;1.25;1.15;;;13.30;99.90;;;;;;5046099;28;20172;-80
2022/10/01 03:44:46;;;;;;;1.30;1.20;;;13.40;99.90;;;;;;5045244;28;20192;-81
2022/10/01 03:47:12;;;;;;;1.23;1.20;;;13.40;99.90;;;;;;5046320;28;20160;-80
2022/10/01 03:49:37;;;;;;;1.10;1.10;;;13.50;99.90;;;;;;5047705;28;20180;-81
2022/10/01 03:52:05;;;;;;;3.75;1.00;;;13.60;99.90;;;;;;5045642;28;20668;-80
2022/10/01 03:54:31;;;;;;;1.40;1.30;;;13.60;99.90;;;;;;5045811;28;20187;-80
2022/10/01 03:56:57;;;;;;;1.33;1.23;;;13.60;99.90;;;;;;5047574;28;20215;-80
2022/10/01 03:59:23;;;;;;;1.50;1.20;;;13.60;99.90;;;;;;5046699;28;20156;-80
2022/10/01 04:01:48;;;;;;;2.08;1.25;;;13.50;99.90;;;;;;5048152;28;20297;-81
2022/10/01 04:04:15;;;;;;;1.35;1.25;;;13.60;99.90;;;;;;5047082;28;20222;-80
2022/10/01 04:06:40;;;;;;;3.17;1.50;;;13.60;99.90;;;;;;5046726;28;20160;-80
2022/10/01 04:09:08;;;;;;;1.58;1.48;;;13.60;99.90;;;;;;5049444;28;20186;-79
2022/10/01 04:11:34;;;;;;;1.30;1.25;;;13.70;99.90;;;;;;5056396;28;20144;-80
2022/10/01 04:13:59;;;;;;;1.60;1.50;;;13.70;99.90;;;;;;5056134;28;20216;-80
2022/10/01 04:16:25;;;;;;;1.15;1.05;;;13.70;99.90;;;;;;5057108;28;20207;-81
2022/10/01 04:18:51;;;;;;;1.90;0.88;;;13.80;99.90;;;;;;5056647;28;20168;-81
2022/10/01 04:21:16;;;;;;;3.17;1.30;;;13.80;99.90;;;;;;5056233;28;20653;-81
2022/10/01 04:23:42;;;;;;;1.65;1.17;;;13.90;99.90;;;;;;5056499;28;20218;-80
2022/10/01 04:26:08;;;;;;;2.28;1.00;;;13.90;99.90;;;;;;5055473;28;20191;-80
2022/10/01 04:28:34;;;;;;;1.00;1.00;;;13.90;99.90;;;;;;5052484;28;20167;-80
2022/10/01 04:33:44;;;;;;;1.95;1.20;;;14.10;99.90;;;;;;5056262;28;20195;-80
2022/10/01 04:36:10;;;;;;;2.78;1.02;;;14.00;99.90;;;;;;5056709;28;20211;-80
2022/10/01 04:38:36;;;;;;;6.05;1.00;;;14.00;99.90;;;;;;5057932;28;20148;-80
2022/10/01 04:41:01;;;;;;;1.35;1.25;;;14.10;99.90;;;;;;5056149;28;20168;-80
2022/10/01 04:43:27;;;;;;;3.08;1.10;;;14.10;99.90;;;;;;5054968;28;20212;-80
2022/10/01 04:45:53;;;;;;;2.33;1.85;;;14.20;99.90;;;;;;5056394;28;20180;-81
2022/10/01 04:48:18;;;;;;;1.00;1.00;;;14.20;99.90;;;;;;5052775;28;20156;-80
2022/10/01 04:50:44;;;;;;;3.55;1.52;;;14.30;99.90;;;;;;5054390;28;20187;-80
2022/10/01 04:53:10;;;;;;;1.35;1.15;;;14.30;99.90;;;;;;5056202;28;20193;-80
2022/10/01 04:55:35;;;;;;;1.50;1.30;;;14.20;99.90;;;;;;5058169;28;20214;-80
2022/10/01 04:58:01;;;;;;;7.18;1.45;;;14.20;99.90;;;;;;5055656;28;20170;-80
2022/10/01 05:00:27;;;;;;;1.17;1.02;;;14.20;99.90;;;;;;5056194;28;20190;-80
2022/10/01 05:02:53;;;;;;;2.03;1.40;;;14.30;99.90;;;;;;5057562;28;20187;-80
2022/10/01 05:05:21;;;;;;;1.45;1.35;;;14.30;99.90;;;;;;5057341;28;20255;-80
2022/10/01 05:07:47;;;;;;;8.73;1.15;;;14.30;99.90;;;;;;5052009;28;20158;-80
2022/10/01 05:10:18;;;;;;;1.95;1.10;;;14.30;99.90;;;;;;5053269;28;20228;-80
2022/10/01 05:12:45;;;;;;;4.45;1.15;;;14.30;99.90;;;;;;5055149;28;20163;-79
2022/10/01 05:15:11;;;;;;;2.65;1.30;;;14.50;99.90;;;;;;5069195;28;20196;-80
2022/10/01 05:17:37;;;;;;;4.82;1.30;;;14.50;99.90;;;;;;5056190;28;20176;-79
2022/10/01 05:20:04;;;;;;;1.77;1.40;;;14.50;99.90;;;;;;5058114;28;20179;-80
2022/10/01 05:22:30;;;;;;;1.17;1.05;;;14.60;99.90;;;;;;5053947;28;20176;-80
2022/10/01 05:24:57;;;;;;;1.05;1.05;;;14.60;99.90;;;;;;5069002;28;20188;-79
2022/10/01 05:27:23;;;;;;;5.22;1.30;;;14.50;99.90;;;;;;5054476;28;20174;-79
2022/10/01 05:29:49;;;;;;;5.28;1.25;;;14.60;99.90;;;;;;5057496;28;20159;-79
2022/10/01 05:32:15;;;;;;;3.45;1.35;;;14.50;99.90;;;;;;5046487;28;20178;-80
2022/10/01 05:34:40;;;;;;;2.78;1.60;;;14.40;99.90;;;;;;5034524;28;20188;-79
2022/10/01 05:37:06;;;;;;;1.70;1.60;;;14.40;99.90;;;;;;5034800;28;20254;-79
2022/10/01 05:39:32;;;;;;;4.55;1.40;;;14.40;99.90;;;;;;5034493;28;20171;-80
2022/10/01 05:41:58;;;;;;;1.23;1.13;;;14.50;99.90;;;;;;5055290;28;20176;-79
2022/10/01 05:44:24;;;;;;;2.13;1.02;;;14.40;99.90;;;;;;5041287;28;20210;-80
2022/10/01 05:46:51;;;;;;;1.40;1.27;;;14.30;99.90;;;;;;5040092;28;20657;-79
2022/10/01 05:49:17;;;;;;;1.50;1.40;;;14.30;99.90;;;;;;5038465;28;20186;-79
2022/10/01 05:51:43;;;;;;;1.40;1.30;;;14.30;99.90;;;;;;5039572;28;20168;-80
2022/10/01 05:54:10;;;;;;;1.50;1.40;;;14.50;99.90;;;;;;5041339;28;20227;-79
2022/10/01 05:56:36;;;;;;;2.15;1.50;;;14.50;99.90;;;;;;5040389;28;20180;-81
2022/10/01 05:59:02;;;;;;;1.52;1.20;;;14.50;99.90;;;;;;5042840;28;20164;-79
2022/10/01 06:01:28;;;;;;;3.70;1.45;;;14.70;99.90;;;;;;5040162;28;20164;-79
2022/10/01 06:03:54;;;;;;;7.97;1.65;;;14.80;99.90;;;;;;5036037;28;20306;-81
2022/10/01 06:06:24;;;;;;;1.90;1.45;;;14.70;99.90;;;;;;5039561;28;20163;-81
2022/10/01 06:08:49;;;;;;;2.92;1.55;;;14.70;99.90;;;;;;5044116;28;20168;-82
2022/10/01 06:11:15;;;;;;;1.80;1.70;;;14.70;99.90;;;;;;5056060;28;20172;-81
2022/10/01 06:13:43;;;;;;;2.25;1.70;;;14.70;99.90;;;;;;5036683;28;20164;-82
2022/10/01 06:16:10;;;;;;;1.98;1.50;;;14.80;99.90;;;;;;5036996;28;20258;-80
2022/10/01 06:18:36;;;;;;;2.55;1.33;;;14.70;99.90;;;;;;5036316;28;20172;-82
2022/10/01 06:21:01;;;;;;;6.75;2.10;;;14.70;99.90;;;;;;5038136;28;20629;-81
2022/10/01 06:23:27;;;;;;;4.75;2.10;;;14.90;99.90;;;;;;5034900;28;20218;-80
2022/10/01 06:25:53;;;;;;;2.25;1.90;;;14.90;99.90;;;;;;5036645;28;20259;-81
2022/10/01 06:28:19;;;;;;;3.53;2.00;;;14.90;99.90;;;;;;5036395;28;20630;-81
2022/10/01 06:30:45;;;;;;;2.95;1.85;;;14.90;99.90;;;;;;5036228;28;20168;-82
2022/10/01 06:33:13;;;;;;;4.47;1.90;;;14.80;99.90;;;;;;5036162;28;20514;-81
2022/10/01 06:35:42;;;;;;;4.50;1.58;;;14.90;99.90;;;;;;5034540;28;20211;-81
2022/10/01 06:38:09;;;;;;;3.42;2.03;;;14.90;99.90;;;;;;5034516;28;20179;-82
2022/10/01 06:40:36;;;;;;;4.68;1.80;;;14.80;99.90;;;;;;5051088;28;20183;-82
2022/10/01 06:43:02;;;;;;;11.27;2.10;;;14.80;99.90;;;;;;5034400;28;20239;-81
2022/10/01 06:45:29;;;;;;;2.50;2.28;;;14.70;99.90;;;;;;5051393;28;20188;-82
2022/10/01 06:47:58;;;;;;;2.40;2.20;;;14.80;99.90;;;;;;5034485;28;20192;-82
2022/10/01 06:50:25;;;;;;;5.88;3.08;;;14.90;99.90;;;;;;5034979;28;20172;-81
2022/10/01 06:53:00;;;;;;;3.83;2.72;;;14.90;99.90;;;;;;5035706;28;20203;-80
2022/10/01 06:55:29;;;;;;;7.00;3.20;;;14.90;99.90;;;;;;5034306;28;20187;-83
2022/10/01 06:58:01;;;;;;;9.07;3.63;;;15.10;99.90;;;;;;5034996;28;20255;-81
2022/10/01 07:00:30;;;;;;;11.02;3.83;;;15.30;99.90;;;;;;5034574;28;20728;-81
2022/10/01 07:02:56;;;;;;;6.07;3.15;;;15.40;99.90;;;;;;5036473;28;20665;-81
2022/10/01 07:05:23;;;;;;;9.68;4.18;;;15.60;99.90;;;;;;5035871;28;20199;-81
2022/10/01 07:07:48;;;;;;;5.80;4.05;;;15.60;99.90;;;;;;5051521;28;20629;-81
2022/10/01 07:10:19;;;;;;;14.50;3.42;;;15.60;99.90;;;;;;5036994;28;20179;-80
2022/10/01 07:12:48;;;;;;;9.35;3.17;;;15.60;99.90;;;;;;5036935;28;20180;-82
2022/10/01 07:15:16;;;;;;;8.40;3.97;;;15.60;99.90;;;;;;5034667;28;20184;-80
2022/10/01 07:17:44;;;;;;;8.50;3.63;;;15.60;99.90;;;;;;5033330;28;20191;-80
2022/10/01 07:20:10;;;;;;;9.60;3.55;;;15.70;99.90;;;;;;5034803;28;20179;-80
2022/10/01 07:22:35;;;;;;;6.78;3.28;;;15.70;99.90;;;;;;5032829;28;20250;-81
2022/10/01 07:25:01;;;;;;;18.23;3.97;;;15.80;99.90;;;;;;5034698;28;20843;-81
2022/10/01 07:27:27;;;;;;;7.00;3.78;;;15.90;99.90;;;;;;5033240;28;20522;-80
2022/10/01 07:29:52;;;;;;;9.02;4.22;;;16.00;99.90;;;;;;5033483;28;20168;-80
2022/10/01 07:32:21;;;;;;;14.38;6.97;;;16.00;99.90;;;;;;5031792;28;20179;-80
2022/10/01 07:34:47;;;;;;;11.70;4.38;;;16.10;99.90;;;;;;5033972;28;20199;-80
2022/10/01 07:37:12;;;;;;;10.70;4.93;;;16.10;99.90;;;;;;5034586;28;20290;-80
2022/10/01 07:39:38;;;;;;;14.65;4.82;;;16.10;99.90;;;;;;5033239;28;20179;-81
2022/10/01 07:42:04;;;;;;;8.25;3.92;;;16.10;99.90;;;;;;5034639;28;20247;-80
2022/10/01 07:44:30;;;;;;;20.40;3.03;;;16.30;99.90;;;;;;5033947;28;20307;-81
2022/10/01 07:46:56;;;;;;;10.55;2.72;;;16.30;99.90;;;;;;5034615;28;20167;-80
2022/10/01 07:49:23;;;;;;;32.80;3.17;;;16.40;99.90;;;;;;5032750;28;20258;-81
2022/10/01 07:51:53;;;;;;;12.13;2.58;;;16.40;99.90;;;;;;5034074;28;20164;-81
2022/10/01 07:54:20;;;;;;;9.70;2.58;;;16.30;99.90;;;;;;5049733;28;20188;-81
2022/10/01 07:56:51;;;;;;;13.65;3.35;;;16.40;99.90;;;;;;5033286;28;20685;-79
2022/10/01 07:59:17;;;;;;;5.78;2.25;;;16.40;99.90;;;;;;5034966;28;20572;-80
2022/10/01 08:01:43;;;;;;;14.27;3.15;;;16.50;99.90;;;;;;5034659;28;20176;-80
2022/10/01 08:06:53;;;;;;;16.92;2.63;;;16.80;99.90;;;;;;5034672;28;20287;-80
2022/10/01 08:09:19;;;;;;;6.20;1.85;;;16.80;99.90;;;;;;5034262;28;20273;-80
2022/10/01 08:11:46;;;;;;;8.55;2.33;;;17.00;99.90;;;;;;5034122;28;20253;-80
2022/10/01 08:14:13;;;;;;;8.68;1.95;;;17.10;99.90;;;;;;5034189;28;20188;-81
2022/10/01 08:16:39;;;;;;;12.45;3.17;;;17.40;99.90;;;;;;5033018;28;20179;-82
2022/10/01 08:19:08;;;;;;;17.67;2.97;;;17.40;99.90;;;;;;5049995;28;20191;-80
2022/10/01 08:21:36;;;;;;;19.20;3.15;;;17.20;99.90;;;;;;5034515;28;20310;-81
2022/10/01 08:24:03;;;;;;;15.57;2.65;;;17.20;99.90;;;;;;5049580;28;20240;-80
2022/10/01 08:26:29;;;;;;;7.70;2.78;;;17.30;99.90;;;;;;5035925;28;20200;-81
2022/10/01 08:28:55;;;;;;;18.70;3.28;;;17.30;99.90;;;;;;5050916;28;20634;-85
2022/10/01 08:31:21;;;;;;;26.17;3.72;;;17.20;99.90;;;;;;5050277;28;20224;-82
2022/10/01 08:33:46;;;;;;;14.80;2.65;;;17.30;99.90;;;;;;5052954;28;20168;-81
2022/10/01 08:36:12;;;;;;;15.52;3.05;;;17.40;99.90;;;;;;5050542;28;20192;-80
2022/10/01 08:38:39;;;;;;;13.98;3.22;;;17.30;99.90;;;;;;5052151;28;20179;-80
2022/10/01 08:41:26;;;;;;;22.02;3.15;;;17.20;99.90;;;;;;5049816;28;20580;-80
2022/10/01 08:43:52;;;;;;;15.10;2.78;;;17.20;99.90;;;;;;5051373;28;20205;-81
2022/10/01 08:46:23;;;;;;;19.88;3.83;;;17.30;99.90;;;;;;5050271;28;20166;-80
2022/10/01 08:49:19;;;;;;;18.65;4.00;;;17.10;99.90;;;;;;5034461;28;20625;-79
2022/10/01 08:51:53;;;;;;;17.88;4.10;;;17.20;99.90;;;;;;5035068;28;20222;-79
2022/10/01 08:54:38;;;;;;;14.52;3.47;;;17.10;99.90;;;;;;5034365;28;20219;-79
2022/10/01 08:57:11;;;;;;;18.95;3.78;;;17.10;99.90;;;;;;5035109;28;20267;-79
2022/10/01 08:59:43;;;;;;;11.05;3.17;;;17.10;99.90;;;;;;5035667;28;20497;-79
2022/10/01 09:02:36;;;;;;;12.18;3.17;;;17.20;99.90;;;;;;5034839;28;20171;-78
2022/10/01 09:05:17;;;;;;;17.73;4.00;;;17.20;99.90;;;;;;5035349;28;20210;-78
2022/10/01 09:07:55;;;;;;;11.55;3.55;;;17.10;99.90;;;;;;5033075;28;20230;-78
2022/10/01 09:10:39;;;;;;;14.68;4.10;;;17.10;99.90;;;;;;5032992;28;20167;-77
2022/10/01 09:13:32;;;;;;;14.50;4.05;;;17.00;99.90;;;;;;5032889;28;20171;-77
2022/10/01 09:16:11;;;;;;;12.48;3.88;;;16.80;99.90;;;;;;5032833;28;20190;-78
2022/10/01 09:18:56;;;;;;;19.27;5.30;;;16.60;99.90;;;;;;5032607;28;20948;-78
2022/10/01 09:21:48;;;;;;;18.92;4.25;;;16.40;99.90;;;;;;5031580;28;20306;-79
2022/10/01 09:24:37;;;;;;;12.93;4.22;;;16.40;99.90;;;;;;5030891;28;20211;-79
2022/10/01 09:27:14;;;;;;;21.25;4.68;;;16.70;99.90;;;;;;5031525;28;20207;-81
2022/10/01 09:29:48;;;;;;;12.10;4.35;;;16.90;99.90;;;;;;5031237;28;20221;-79
2022/10/01 09:32:18;;;;;;;21.48;4.38;;;17.20;99.90;;;;;;5032618;28;20498;-79
2022/10/01 09:34:44;;;;;;;11.65;3.78;;;17.30;99.90;;;;;;5032374;28;20192;-79
2022/10/01 09:37:37;;;;;;;20.13;4.05;;;17.30;99.90;;;;;;5031931;28;20168;-79
2022/10/01 09:40:31;;;;;;;11.57;3.70;;;17.20;99.90;;;;;;5032100;28;20164;-78
2022/10/01 09:42:57;;;;;;;16.75;3.75;;;17.10;99.90;;;;;;5031246;28;20242;-83
2022/10/01 09:45:23;;;;;;;13.90;3.20;;;17.00;99.90;;;;;;5031948;28;20289;-79
2022/10/01 09:47:51;;;;;;;9.43;3.90;;;16.90;99.90;;;;;;5032429;28;20203;-79
2022/10/01 09:50:33;;;;;;;18.98;4.00;;;17.00;99.90;;;;;;5033652;28;20160;-80
2022/10/01 09:52:59;;;;;;;13.75;3.53;;;16.90;99.90;;;;;;5032510;28;20194;-80
2022/10/01 09:55:42;;;;;;;14.90;3.97;;;17.00;99.90;;;;;;5032253;28;20546;-79
2022/10/01 09:58:20;;;;;;;14.10;4.15;;;17.10;99.90;;;;;;5032161;28;20171;-79
2022/10/01 10:00:50;;;;;;;12.52;3.85;;;17.10;99.90;;;;;;5031063;28;20174;-79
2022/10/01 10:03:30;;;;;;;13.90;4.53;;;17.10;99.90;;;;;;5032148;28;20672;-79
2022/10/01 10:05:58;;;;;;;33.55;10.90;;;17.20;99.90;;;;;;5030456;28;20194;-78
2022/10/01 10:08:34;;;;;;;17.23;7.00;;;17.20;99.90;;;;;;5032053;28;20168;-79
2022/10/01 10:11:03;;;;;;;17.55;5.57;;;17.20;99.90;;;;;;5031842;28;20166;-80
2022/10/01 10:13:39;;;;;;;13.10;4.20;;;17.40;99.90;;;;;;5031934;28;20172;-80
2022/10/01 10:16:17;;;;;;;16.90;3.97;;;17.50;99.90;;;;;;5031754;28;20704;-80
2022/10/01 10:18:50;;;;;;;25.35;8.52;;;17.60;99.90;;;;;;5032051;28;20171;-79
2022/10/01 10:21:20;;;;;;;16.23;4.97;;;17.80;99.90;;;;;;5031765;28;20175;-81
2022/10/01 10:23:48;;;;;;;14.18;6.50;;;17.90;99.90;;;;;;5031718;28;20762;-79
2022/10/01 10:26:27;;;;;;;22.67;6.05;;;17.90;99.90;;;;;;5031388;28;20593;-80
2022/10/01 10:28:55;;;;;;;23.58;7.40;;;18.00;99.90;;;;;;5031699;28;20156;-84
2022/10/01 10:31:24;;;;;;;9.27;3.58;;;18.00;99.90;;;;;;5032014;28;20203;-80
2022/10/01 10:34:05;;;;;;;14.25;3.55;;;18.00;99.90;;;;;;5032011;28;20183;-80
2022/10/01 10:36:34;;;;;;;9.65;3.03;;;18.00;99.90;;;;;;5031964;28;20570;-80
2022/10/01 10:39:00;;;;;;;10.35;3.50;;;17.90;99.90;;;;;;5031509;28;20155;-80
2022/10/01 10:41:28;;;;;;;13.77;3.47;;;17.80;99.90;;;;;;5031180;28;20172;-81
2022/10/01 10:43:59;;;;;;;15.20;3.88;;;17.80;99.90;;;;;;5031214;28;20265;-78
2022/10/01 10:46:37;;;;;;;9.27;3.53;;;17.80;99.90;;;;;;5031515;28;20164;-85
2022/10/01 10:49:28;;;;;;;13.63;4.70;;;17.80;99.90;;;;;;5031589;28;20538;-77
2022/10/01 10:51:55;;;;;;;9.13;4.05;;;18.00;99.90;;;;;;5033127;28;20190;-79
2022/10/01 10:54:28;;;;;;;9.02;3.75;;;18.10;99.90;;;;;;5033861;28;20198;-80
2022/10/01 10:57:02;;;;;;;10.30;3.55;;;18.40;99.90;;;;;;5034866;28;20660;-79
2022/10/01 10:59:30;;;;;;;11.52;3.78;;;18.50;99.90;;;;;;5035099;28;20221;-78
2022/10/01 11:01:57;;;;;;;9.20;3.38;;;18.90;99.90;;;;;;5034718;28;20217;-79
2022/10/01 11:04:44;;;;;;;9.35;2.92;;;19.10;99.90;;;;;;5034832;28;20539;-78
2022/10/01 11:07:12;;;;;;;8.50;3.33;;;19.00;99.90;;;;;;5034853;28;20174;-79
2022/10/01 11:09:54;;;;;;;8.30;2.67;;;18.90;99.90;;;;;;5034927;28;20211;-79
2022/10/01 11:12:28;;;;;;;10.60;3.13;;;18.80;99.90;;;;;;5034767;28;20170;-78
2022/10/01 11:15:13;;;;;;;9.23;2.13;;;18.90;99.90;;;;;;5035046;28;20229;-79
2022/10/01 11:17:50;;;;;;;15.65;4.35;;;18.90;99.90;;;;;;5049986;28;20171;-79
2022/10/01 11:20:23;;;;;;;9.35;4.78;;;19.00;99.90;;;;;;5034774;28;20645;-79
2022/10/01 11:23:22;;;;;;;5.38;3.25;;;19.10;99.90;;;;;;5034725;28;20199;-79
2022/10/01 11:26:12;;;;;;;10.02;3.60;;;19.10;99.90;;;;;;5034171;28;20661;-79
2022/10/01 11:28:46;;;;;;;19.67;3.78;;;18.90;99.90;;;;;;5034676;28;20194;-80
2022/10/01 11:31:31;;;;;;;10.30;3.92;;;18.60;99.90;;;;;;5034662;28;20171;-79
2022/10/01 11:34:24;;;;;;;13.20;3.17;;;18.30;99.90;;;;;;5033377;28;20259;-79
2022/10/01 11:37:19;;;;;;;17.73;4.18;;;18.30;99.90;;;;;;5034443;28;20171;-79
2022/10/01 11:39:48;;;;;;;9.35;2.97;;;18.30;99.90;;;;;;5034343;28;20203;-80
2022/10/01 11:42:21;;;;;;;13.27;3.15;;;18.50;99.90;;;;;;5034336;28;20164;-80
2022/10/01 11:45:04;;;;;;;12.18;3.17;;;18.60;99.90;;;;;;5034062;28;20211;-80
2022/10/01 11:47:40;;;;;;;9.10;2.75;;;18.70;99.90;;;;;;5034716;28;20638;-79
2022/10/01 11:50:19;;;;;;;14.52;2.60;;;18.70;99.90;;;;;;5034198;28;20167;-80
2022/10/01 11:53:11;;;;;;;9.77;2.25;;;18.70;99.90;;;;;;5033804;28;20184;-80
2022/10/01 11:58:53;;;;;;;20.73;2.97;;;18.80;99.90;;;;;;5034083;28;20170;-80
2022/10/01 12:01:30;;;;;;;10.43;2.85;;;18.90;99.90;;;;;;5033531;28;20168;-79
2022/10/01 12:04:03;;;;;;;17.90;2.88;;;19.00;99.90;;;;;;5033851;28;20215;-78
2022/10/01 12:06:42;;;;;;;15.07;4.70;;;18.80;99.90;;;;;;5033806;28;20168;-78
2022/10/01 12:09:21;;;;;;;7.63;1.65;;;18.60;99.90;;;;;;5034077;28;20226;-79
2022/10/01 12:12:10;;;;;;;9.85;1.90;;;18.60;99.90;;;;;;5033737;28;20664;-77
2022/10/01 12:14:43;;;;;;;8.88;1.30;;;18.70;99.90;;;;;;5032677;28;20593;-81
2022/10/01 12:17:25;;;;;;;9.68;1.30;;;18.50;99.90;;;;;;5034536;28;20160;-84
2022/10/01 12:19:54;;;;;;;6.45;1.20;;;18.30;99.90;;;;;;5032413;28;20306;-79
2022/10/01 12:22:24;;;;;;;11.95;1.25;;;18.40;99.90;;;;;;5033416;28;20163;-80
2022/10/01 12:24:50;;;;;;;16.20;1.83;;;18.40;99.90;;;;;;5032042;28;20329;-81
2022/10/01 12:27:48;;;;;;;5.65;1.13;;;18.50;99.90;;;;;;5032321;28;20176;-79
2022/10/01 12:30:22;;;;;;;3.53;1.20;;;18.60;99.90;;;;;;5032644;28;20188;-79
2022/10/01 12:33:06;;;;;;;5.30;1.60;;;18.60;99.90;;;;;;5032141;28;20596;-78
2022/10/01 12:35:51;;;;;;;4.78;1.80;;;18.50;99.90;;;;;;5033526;28;20549;-78
2022/10/01 12:38:20;;;;;;;11.07;2.83;;;18.50;99.90;;;;;;5033422;28;20156;-78
2022/10/01 12:40:57;;;;;;;15.77;3.28;;;18.40;99.90;;;;;;5032020;28;20538;-79
2022/10/01 12:43:55;;;;;;;15.90;2.50;;;18.30;99.90;;;;;;5033071;28;20240;-79
2022/10/01 12:47:10;;;;;;;10.95;2.40;;;18.00;99.90;;;;;;5032913;28;20198;-79
2022/10/01 12:49:38;;;;;;;10.63;2.60;;;17.90;99.90;;;;;;5032176;28;20626;-79
2022/10/01 12:52:51;;;;;;;10.38;2.08;;;17.80;99.90;;;;;;5032608;28;20180;-82
2022/10/01 12:55:41;;;;;;;14.45;2.45;;;17.90;99.90;;;;;;5022109;28;20228;-79
2022/10/01 12:58:40;;;;;;;11.77;2.70;;;18.00;99.90;;;;;;5011366;28;20192;-78
2022/10/01 13:01:42;;;;;;;7.32;2.05;;;18.00;99.90;;;;;;5029288;28;20187;-78
2022/10/01 13:04:16;;;;;;;17.98;5.82;;;18.10;99.90;;;;;;5031732;28;20219;-82
2022/10/01 13:06:49;;;;;;;18.02;7.30;;;18.00;99.90;;;;;;5030981;28;20605;-78
2022/10/01 13:09:47;;;;;;;11.68;7.40;;;18.20;99.90;;;;;;5032353;28;20743;-78
2022/10/01 13:12:43;;;;;;;4.30;2.72;;;18.40;99.90;;;;;;5031925;28;20570;-78
2022/10/01 13:15:39;;;;;;;7.78;2.25;;;18.50;99.90;;;;;;5032715;28;20338;-79